Ana Sayfa
METAR-TAF:

METAR-TAF

Havaalanları :

Red Oak Municipal Airport

Red Oak, Iowa, Amerika Birleşik Devletleri

Enlem: 41-01N, Boylam: 095-16W, yükseklik: 318 m

Güncel hava durumu gözlemi

Rapor saat 03:55 UTC de 23 dakika önce yapıldı.
Rüzgar kuzey/kuzeydoğudan 7 kt
Sıcaklık 13°C
Nem 58%
Basınç 1014 hPa
Görüş mesafesi: 16.1 km
Açık gökyüzü

METAR: KRDK 180355Z AUTO 03007KT 10SM CLR 13/05 A2995 RMK AO2

Saat: 23:18 (04:18 UTC)


TAF: eksik

4.000'den fazla havaalanı için hava durumu gözlemleri ve tahminleri (METAR ve TAF raporları).

Kullanılabilir istasyonlar harita üzerinde sarı ve kırmızı noktalarla gösterilir.

İstasyonun adını görmek için fareyi noktanın üzerinde gezdirin.

Sonrasında hava gözlem ve tahminlerini görmek için tıklayın.

Haritayı değiştirmek için: yaklaştırmak için siyah artı işaretli yeşil düğmeye ve uzaklaştırmak için de eksi işaretli düğmeye hızla tıklayın; bitişik haritalar için yeşil okları kullanın.


METAR-TAF: